sensor_id;sensor_type;location;lat;lon;timestamp;pressure;altitude;pressure_sealevel;temperature;humidity
54389;BME280;40975;50.390;8.640;2023-03-03T00:02:14;99499.81;;;0.71;100.00
54389;BME280;40975;50.390;8.640;2023-03-03T00:04:40;99494.44;;;0.74;100.00
54389;BME280;40975;50.390;8.640;2023-03-03T00:07:05;99506.38;;;0.80;100.00
54389;BME280;40975;50.390;8.640;2023-03-03T00:09:30;99501.28;;;0.77;100.00
54389;BME280;40975;50.390;8.640;2023-03-03T00:11:58;99505.53;;;0.80;100.00
54389;BME280;40975;50.390;8.640;2023-03-03T00:14:28;99508.44;;;0.73;100.00
54389;BME280;40975;50.390;8.640;2023-03-03T00:16:54;99501.75;;;0.68;100.00
54389;BME280;40975;50.390;8.640;2023-03-03T00:19:20;99507.59;;;0.73;100.00
54389;BME280;40975;50.390;8.640;2023-03-03T00:21:47;99504.91;;;0.74;100.00
54389;BME280;40975;50.390;8.640;2023-03-03T00:26:40;99503.19;;;0.56;100.00
54389;BME280;40975;50.390;8.640;2023-03-03T00:29:29;99504.94;;;0.55;100.00
54389;BME280;40975;50.390;8.640;2023-03-03T00:32:07;99509.19;;;0.58;100.00
54389;BME280;40975;50.390;8.640;2023-03-03T00:34:36;99514.69;;;0.52;100.00
54389;BME280;40975;50.390;8.640;2023-03-03T00:37:02;99502.16;;;0.41;100.00
54389;BME280;40975;50.390;8.640;2023-03-03T00:39:30;99516.56;;;0.50;100.00
54389;BME280;40975;50.390;8.640;2023-03-03T00:41:58;99516.03;;;0.41;100.00
54389;BME280;40975;50.390;8.640;2023-03-03T00:47:13;99512.94;;;0.33;100.00
54389;BME280;40975;50.390;8.640;2023-03-03T00:49:43;99516.56;;;0.30;100.00
54389;BME280;40975;50.390;8.640;2023-03-03T00:52:16;99521.44;;;0.38;100.00
54389;BME280;40975;50.390;8.640;2023-03-03T00:54:42;99518.81;;;0.38;100.00
54389;BME280;40975;50.390;8.640;2023-03-03T00:57:08;99514.66;;;0.34;100.00
54389;BME280;40975;50.390;8.640;2023-03-03T00:59:35;99518.25;;;0.32;100.00
54389;BME280;40975;50.390;8.640;2023-03-03T01:02:00;99523.91;;;0.22;100.00
54389;BME280;40975;50.390;8.640;2023-03-03T01:04:25;99526.56;;;0.21;100.00
54389;BME280;40975;50.390;8.640;2023-03-03T01:06:51;99516.34;;;0.16;100.00
54389;BME280;40975;50.390;8.640;2023-03-03T01:09:16;99515.41;;;0.17;100.00
54389;BME280;40975;50.390;8.640;2023-03-03T01:11:41;99513.94;;;0.11;100.00
54389;BME280;40975;50.390;8.640;2023-03-03T01:14:07;99503.16;;;0.00;100.00
54389;BME280;40975;50.390;8.640;2023-03-03T01:16:32;99519.31;;;0.08;100.00
54389;BME280;40975;50.390;8.640;2023-03-03T01:18:58;99514.09;;;0.08;100.00
54389;BME280;40975;50.390;8.640;2023-03-03T01:21:23;99522.75;;;0.09;100.00
54389;BME280;40975;50.390;8.640;2023-03-03T01:23:48;99513.09;;;0.11;100.00
54389;BME280;40975;50.390;8.640;2023-03-03T01:26:14;99512.31;;;0.09;100.00
54389;BME280;40975;50.390;8.640;2023-03-03T01:28:39;99511.00;;;0.00;100.00
54389;BME280;40975;50.390;8.640;2023-03-03T01:31:05;99516.97;;;0.02;100.00
54389;BME280;40975;50.390;8.640;2023-03-03T01:33:31;99507.16;;;-0.12;100.00
54389;BME280;40975;50.390;8.640;2023-03-03T01:35:57;99501.03;;;-0.11;100.00
54389;BME280;40975;50.390;8.640;2023-03-03T01:38:22;99507.16;;;-0.12;100.00
54389;BME280;40975;50.390;8.640;2023-03-03T01:40:58;99509.56;;;-0.07;100.00
54389;BME280;40975;50.390;8.640;2023-03-03T01:43:29;99510.56;;;-0.10;100.00
54389;BME280;40975;50.390;8.640;2023-03-03T01:48:29;99510.25;;;-0.23;100.00
54389;BME280;40975;50.390;8.640;2023-03-03T01:51:02;99505.84;;;-0.21;100.00
54389;BME280;40975;50.390;8.640;2023-03-03T01:53:35;99497.81;;;-0.16;100.00
54389;BME280;40975;50.390;8.640;2023-03-03T01:56:02;99497.94;;;-0.19;100.00
54389;BME280;40975;50.390;8.640;2023-03-03T01:58:34;99513.38;;;-0.14;100.00
54389;BME280;40975;50.390;8.640;2023-03-03T02:01:04;99507.94;;;-0.10;100.00
54389;BME280;40975;50.390;8.640;2023-03-03T02:03:32;99493.34;;;-0.14;100.00
54389;BME280;40975;50.390;8.640;2023-03-03T02:06:02;99497.06;;;-0.20;100.00
54389;BME280;40975;50.390;8.640;2023-03-03T02:08:51;99506.88;;;-0.25;100.00
54389;BME280;40975;50.390;8.640;2023-03-03T02:11:19;99494.03;;;-0.29;100.00
54389;BME280;40975;50.390;8.640;2023-03-03T02:13:45;99506.50;;;-0.36;100.00
54389;BME280;40975;50.390;8.640;2023-03-03T02:16:10;99506.50;;;-0.36;100.00
54389;BME280;40975;50.390;8.640;2023-03-03T02:18:36;99501.47;;;-0.41;100.00
54389;BME280;40975;50.390;8.640;2023-03-03T02:26:29;99513.09;;;-0.48;100.00
54389;BME280;40975;50.390;8.640;2023-03-03T02:29:00;99509.13;;;-0.57;100.00
54389;BME280;40975;50.390;8.640;2023-03-03T02:31:28;99509.22;;;-0.58;100.00
54389;BME280;40975;50.390;8.640;2023-03-03T02:33:55;99501.47;;;-0.60;100.00
54389;BME280;40975;50.390;8.640;2023-03-03T02:36:26;99502.94;;;-0.54;100.00
54389;BME280;40975;50.390;8.640;2023-03-03T02:41:37;99506.00;;;-0.44;100.00
54389;BME280;40975;50.390;8.640;2023-03-03T02:44:14;99512.19;;;-0.47;100.00
54389;BME280;40975;50.390;8.640;2023-03-03T02:46:45;99506.13;;;-0.48;100.00
54389;BME280;40975;50.390;8.640;2023-03-03T02:49:14;99505.28;;;-0.48;100.00
54389;BME280;40975;50.390;8.640;2023-03-03T02:51:40;99507.31;;;-0.55;100.00
54389;BME280;40975;50.390;8.640;2023-03-03T02:54:07;99509.13;;;-0.57;100.00
54389;BME280;40975;50.390;8.640;2023-03-03T02:56:33;99512.59;;;-0.56;100.00
54389;BME280;40975;50.390;8.640;2023-03-03T02:58:59;99510.03;;;-0.58;100.00
54389;BME280;40975;50.390;8.640;2023-03-03T03:01:26;99504.13;;;-0.61;100.00
54389;BME280;40975;50.390;8.640;2023-03-03T03:03:53;99497.16;;;-0.61;100.00
54389;BME280;40975;50.390;8.640;2023-03-03T03:06:21;99511.94;;;-0.61;100.00
54389;BME280;40975;50.390;8.640;2023-03-03T03:08:46;99505.72;;;-0.59;100.00
54389;BME280;40975;50.390;8.640;2023-03-03T03:11:12;99508.28;;;-0.57;100.00
54389;BME280;40975;50.390;8.640;2023-03-03T03:13:38;99510.69;;;-0.53;100.00
54389;BME280;40975;50.390;8.640;2023-03-03T03:16:04;99517.41;;;-0.47;100.00
54389;BME280;40975;50.390;8.640;2023-03-03T03:18:29;99520.22;;;-0.52;100.00
54389;BME280;40975;50.390;8.640;2023-03-03T03:20:56;99510.00;;;-0.56;100.00
54389;BME280;40975;50.390;8.640;2023-03-03T03:23:21;99521.34;;;-0.57;100.00
54389;BME280;40975;50.390;8.640;2023-03-03T03:25:47;99523.28;;;-0.63;100.00
54389;BME280;40975;50.390;8.640;2023-03-03T03:28:20;99519.03;;;-0.65;100.00
54389;BME280;40975;50.390;8.640;2023-03-03T03:30:45;99536.38;;;-0.64;100.00
54389;BME280;40975;50.390;8.640;2023-03-03T03:33:11;99535.53;;;-0.65;100.00
54389;BME280;40975;50.390;8.640;2023-03-03T03:35:38;99527.84;;;-0.68;100.00
54389;BME280;40975;50.390;8.640;2023-03-03T03:38:10;99529.66;;;-0.70;100.00
54389;BME280;40975;50.390;8.640;2023-03-03T03:40:35;99538.47;;;-0.72;100.00
54389;BME280;40975;50.390;8.640;2023-03-03T03:43:01;99537.59;;;-0.73;100.00
54389;BME280;40975;50.390;8.640;2023-03-03T03:45:26;99534.97;;;-0.71;100.00
54389;BME280;40975;50.390;8.640;2023-03-03T03:47:51;99526.44;;;-0.75;100.00
54389;BME280;40975;50.390;8.640;2023-03-03T03:50:17;99529.88;;;-0.74;100.00
54389;BME280;40975;50.390;8.640;2023-03-03T03:52:43;99525.25;;;-0.68;100.00
54389;BME280;40975;50.390;8.640;2023-03-03T03:55:09;99523.53;;;-0.69;100.00
54389;BME280;40975;50.390;8.640;2023-03-03T03:57:36;99529.34;;;-0.62;100.00
54389;BME280;40975;50.390;8.640;2023-03-03T04:00:03;99521.38;;;-0.80;100.00
54389;BME280;40975;50.390;8.640;2023-03-03T04:02:39;99532.00;;;-0.84;100.00
54389;BME280;40975;50.390;8.640;2023-03-03T04:05:05;99543.34;;;-0.85;100.00
54389;BME280;40975;50.390;8.640;2023-03-03T04:07:30;99540.00;;;-0.89;100.00
54389;BME280;40975;50.390;8.640;2023-03-03T04:09:56;99537.94;;;-1.01;100.00
54389;BME280;40975;50.390;8.640;2023-03-03T04:12:21;99543.97;;;-1.01;100.00
54389;BME280;40975;50.390;8.640;2023-03-03T04:14:46;99537.75;;;-0.97;100.00
54389;BME280;40975;50.390;8.640;2023-03-03T04:17:17;99543.59;;;-0.91;100.00
54389;BME280;40975;50.390;8.640;2023-03-03T04:19:43;99553.19;;;-0.92;100.00
54389;BME280;40975;50.390;8.640;2023-03-03T04:22:08;99544.75;;;-0.99;100.00
54389;BME280;40975;50.390;8.640;2023-03-03T04:24:34;99548.81;;;-0.91;100.00
54389;BME280;40975;50.390;8.640;2023-03-03T04:27:02;99548.91;;;-0.95;100.00
54389;BME280;40975;50.390;8.640;2023-03-03T04:29:28;99545.03;;;-0.84;100.00
54389;BME280;40975;50.390;8.640;2023-03-03T04:31:54;99544.28;;;-0.86;100.00
54389;BME280;40975;50.390;8.640;2023-03-03T04:34:20;99553.19;;;-0.92;100.00
54389;BME280;40975;50.390;8.640;2023-03-03T04:36:45;99554.28;;;-0.98;100.00
54389;BME280;40975;50.390;8.640;2023-03-03T04:39:11;99557.13;;;-1.04;100.00
54389;BME280;40975;50.390;8.640;2023-03-03T04:41:37;99563.97;;;-1.01;100.00
54389;BME280;40975;50.390;8.640;2023-03-03T04:44:02;99563.31;;;-1.06;100.00
54389;BME280;40975;50.390;8.640;2023-03-03T04:46:28;99563.00;;;-0.99;100.00
54389;BME280;40975;50.390;8.640;2023-03-03T04:48:53;99561.50;;;-1.04;100.00
54389;BME280;40975;50.390;8.640;2023-03-03T04:51:20;99565.72;;;-1.02;100.00
54389;BME280;40975;50.390;8.640;2023-03-03T04:53:45;99567.72;;;-0.86;100.00
54389;BME280;40975;50.390;8.640;2023-03-03T04:56:11;99560.28;;;-0.96;100.00
54389;BME280;40975;50.390;8.640;2023-03-03T04:58:37;99568.56;;;-0.86;100.00
54389;BME280;40975;50.390;8.640;2023-03-03T05:01:02;99565.03;;;-0.85;100.00
54389;BME280;40975;50.390;8.640;2023-03-03T05:03:30;99557.94;;;-0.81;100.00
54389;BME280;40975;50.390;8.640;2023-03-03T05:05:55;99547.81;;;-0.89;100.00
54389;BME280;40975;50.390;8.640;2023-03-03T05:08:21;99543.91;;;-0.99;100.00
54389;BME280;40975;50.390;8.640;2023-03-03T05:10:50;99562.56;;;-0.88;100.00
54389;BME280;40975;50.390;8.640;2023-03-03T05:13:16;99553.81;;;-0.87;100.00
54389;BME280;40975;50.390;8.640;2023-03-03T05:15:41;99559.81;;;-0.85;100.00
54389;BME280;40975;50.390;8.640;2023-03-03T05:18:07;99559.75;;;-0.83;100.00
54389;BME280;40975;50.390;8.640;2023-03-03T05:20:33;99535.78;;;-0.91;100.00
54389;BME280;40975;50.390;8.640;2023-03-03T05:22:58;99558.00;;;-0.83;100.00
54389;BME280;40975;50.390;8.640;2023-03-03T05:25:25;99563.22;;;-0.83;100.00
54389;BME280;40975;50.390;8.640;2023-03-03T05:27:51;99560.53;;;-0.81;100.00
54389;BME280;40975;50.390;8.640;2023-03-03T05:30:16;99563.88;;;-0.77;100.00
54389;BME280;40975;50.390;8.640;2023-03-03T05:32:42;99571.50;;;-0.73;100.00
54389;BME280;40975;50.390;8.640;2023-03-03T05:35:07;99568.06;;;-0.73;100.00
54389;BME280;40975;50.390;8.640;2023-03-03T05:37:33;99574.09;;;-0.73;100.00
54389;BME280;40975;50.390;8.640;2023-03-03T05:39:58;99583.78;;;-0.75;100.00
54389;BME280;40975;50.390;8.640;2023-03-03T05:42:23;99574.25;;;-0.76;100.00
54389;BME280;40975;50.390;8.640;2023-03-03T05:44:49;99568.13;;;-0.75;100.00
54389;BME280;40975;50.390;8.640;2023-03-03T05:47:14;99576.97;;;-0.79;100.00
54389;BME280;40975;50.390;8.640;2023-03-03T05:49:39;99584.78;;;-0.79;100.00
54389;BME280;40975;50.390;8.640;2023-03-03T05:52:05;99589.91;;;-0.76;100.00
54389;BME280;40975;50.390;8.640;2023-03-03T05:54:30;99587.31;;;-0.77;100.00
54389;BME280;40975;50.390;8.640;2023-03-03T05:56:55;99594.19;;;-0.75;100.00
54389;BME280;40975;50.390;8.640;2023-03-03T05:59:22;99596.53;;;-0.69;100.00
54389;BME280;40975;50.390;8.640;2023-03-03T06:01:48;99601.94;;;-0.73;100.00
54389;BME280;40975;50.390;8.640;2023-03-03T06:04:13;99594.84;;;-0.70;100.00
54389;BME280;40975;50.390;8.640;2023-03-03T06:06:39;99599.03;;;-0.66;100.00
54389;BME280;40975;50.390;8.640;2023-03-03T06:09:05;99604.16;;;-0.64;100.00
54389;BME280;40975;50.390;8.640;2023-03-03T06:11:30;99597.06;;;-0.60;100.00
54389;BME280;40975;50.390;8.640;2023-03-03T06:13:55;99603.38;;;-0.66;100.00
54389;BME280;40975;50.390;8.640;2023-03-03T06:16:21;99612.25;;;-0.70;100.00
54389;BME280;40975;50.390;8.640;2023-03-03T06:18:46;99620.78;;;-0.67;100.00
54389;BME280;40975;50.390;8.640;2023-03-03T06:21:11;99606.38;;;-0.75;100.00
54389;BME280;40975;50.390;8.640;2023-03-03T06:23:37;99613.91;;;-0.69;100.00
54389;BME280;40975;50.390;8.640;2023-03-03T06:26:02;99621.41;;;-0.60;100.00
54389;BME280;40975;50.390;8.640;2023-03-03T06:28:27;99605.16;;;-0.67;100.00
54389;BME280;40975;50.390;8.640;2023-03-03T06:30:54;99619.75;;;-0.63;100.00
54389;BME280;40975;50.390;8.640;2023-03-03T06:33:19;99622.13;;;-0.79;100.00
54389;BME280;40975;50.390;8.640;2023-03-03T06:35:49;99621.81;;;-0.71;100.00
54389;BME280;40975;50.390;8.640;2023-03-03T06:38:14;99627.72;;;-0.66;100.00
54389;BME280;40975;50.390;8.640;2023-03-03T06:40:39;99640.56;;;-0.61;100.00
54389;BME280;40975;50.390;8.640;2023-03-03T06:43:05;99646.53;;;-0.59;100.00
54389;BME280;40975;50.390;8.640;2023-03-03T06:45:30;99651.81;;;-0.60;100.00
54389;BME280;40975;50.390;8.640;2023-03-03T06:47:55;99653.41;;;-0.56;100.00
54389;BME280;40975;50.390;8.640;2023-03-03T06:50:21;99662.91;;;-0.77;100.00
54389;BME280;40975;50.390;8.640;2023-03-03T06:52:46;99668.38;;;-0.61;100.00
54389;BME280;40975;50.390;8.640;2023-03-03T06:55:17;99670.84;;;-0.58;100.00
54389;BME280;40975;50.390;8.640;2023-03-03T06:57:45;99675.03;;;-0.54;100.00
54389;BME280;40975;50.390;8.640;2023-03-03T07:00:22;99675.78;;;-0.51;100.00
54389;BME280;40975;50.390;8.640;2023-03-03T07:02:59;99662.72;;;-0.51;100.00
54389;BME280;40975;50.390;8.640;2023-03-03T07:05:27;99680.03;;;-0.50;100.00
54389;BME280;40975;50.390;8.640;2023-03-03T07:07:54;99689.25;;;-0.41;100.00
54389;BME280;40975;50.390;8.640;2023-03-03T07:10:25;99679.09;;;-0.47;100.00
54389;BME280;40975;50.390;8.640;2023-03-03T07:12:51;99686.59;;;-0.39;100.00
54389;BME280;40975;50.390;8.640;2023-03-03T07:15:22;99688.97;;;-0.33;100.00
54389;BME280;40975;50.390;8.640;2023-03-03T07:17:52;99695.72;;;-0.29;100.00
54389;BME280;40975;50.390;8.640;2023-03-03T07:20:21;99702.91;;;-0.34;100.00
54389;BME280;40975;50.390;8.640;2023-03-03T07:22:48;99695.72;;;-0.29;100.00
54389;BME280;40975;50.390;8.640;2023-03-03T07:25:20;99700.25;;;-0.12;100.00
54389;BME280;40975;50.390;8.640;2023-03-03T07:27:46;99702.22;;;-0.17;100.00
54389;BME280;40975;50.390;8.640;2023-03-03T07:32:45;99712.06;;;-0.24;100.00
54389;BME280;40975;50.390;8.640;2023-03-03T07:37:57;99713.09;;;-0.28;100.00
54389;BME280;40975;50.390;8.640;2023-03-03T07:40:47;99708.47;;;-0.21;100.00
54389;BME280;40975;50.390;8.640;2023-03-03T07:46:33;99712.59;;;-0.16;100.00
54389;BME280;40975;50.390;8.640;2023-03-03T07:49:51;99723.63;;;-0.09;100.00
54389;BME280;40975;50.390;8.640;2023-03-03T07:51:55;99723.09;;;-0.17;100.00
54389;BME280;40975;50.390;8.640;2023-03-03T07:57:04;99736.16;;;0.04;100.00
54389;BME280;40975;50.390;8.640;2023-03-03T07:59:34;99731.84;;;0.03;100.00
54389;BME280;40975;50.390;8.640;2023-03-03T08:02:01;99737.09;;;0.01;100.00
54389;BME280;40975;50.390;8.640;2023-03-03T08:04:41;99723.81;;;0.07;100.00
54389;BME280;40975;50.390;8.640;2023-03-03T08:07:15;99725.91;;;0.20;100.00
54389;BME280;40975;50.390;8.640;2023-03-03T08:09:56;99730.97;;;0.23;100.00
54389;BME280;40975;50.390;8.640;2023-03-03T08:14:55;99715.63;;;0.15;100.00
54389;BME280;40975;50.390;8.640;2023-03-03T08:17:23;99727.16;;;0.32;100.00
54389;BME280;40975;50.390;8.640;2023-03-03T08:19:51;99724.66;;;0.28;100.00
54389;BME280;40975;50.390;8.640;2023-03-03T08:22:24;99729.28;;;0.42;100.00
54389;BME280;40975;50.390;8.640;2023-03-03T08:24:54;99730.56;;;0.53;100.00
54389;BME280;40975;50.390;8.640;2023-03-03T08:27:19;99726.63;;;0.63;100.00
54389;BME280;40975;50.390;8.640;2023-03-03T08:29:45;99731.81;;;0.65;100.00
54389;BME280;40975;50.390;8.640;2023-03-03T08:32:10;99726.00;;;0.77;100.00
54389;BME280;40975;50.390;8.640;2023-03-03T08:34:35;99731.88;;;0.82;100.00
54389;BME280;40975;50.390;8.640;2023-03-03T08:37:01;99735.50;;;0.80;100.00
54389;BME280;40975;50.390;8.640;2023-03-03T08:39:26;99729.84;;;0.89;100.00
54389;BME280;40975;50.390;8.640;2023-03-03T08:41:51;99731.38;;;0.93;100.00
54389;BME280;40975;50.390;8.640;2023-03-03T08:44:17;99702.44;;;0.79;100.00
54389;BME280;40975;50.390;8.640;2023-03-03T08:46:43;99730.88;;;1.23;100.00
54389;BME280;40975;50.390;8.640;2023-03-03T08:49:09;99746.25;;;1.48;100.00
54389;BME280;40975;50.390;8.640;2023-03-03T08:51:34;99741.81;;;1.31;100.00
54389;BME280;40975;50.390;8.640;2023-03-03T08:53:59;99751.94;;;1.39;100.00
54389;BME280;40975;50.390;8.640;2023-03-03T08:56:25;99744.31;;;1.34;100.00
54389;BME280;40975;50.390;8.640;2023-03-03T08:58:50;99749.84;;;1.09;100.00
54389;BME280;40975;50.390;8.640;2023-03-03T09:01:16;99758.94;;;1.00;100.00
54389;BME280;40975;50.390;8.640;2023-03-03T09:03:43;99756.41;;;1.18;100.00
54389;BME280;40975;50.390;8.640;2023-03-03T09:06:09;99753.94;;;1.15;100.00
54389;BME280;40975;50.390;8.640;2023-03-03T09:08:35;99755.28;;;1.23;100.00
54389;BME280;40975;50.390;8.640;2023-03-03T09:11:01;99762.63;;;1.34;100.00
54389;BME280;40975;50.390;8.640;2023-03-03T09:13:28;99759.50;;;1.26;100.00
54389;BME280;40975;50.390;8.640;2023-03-03T09:15:56;99748.97;;;1.28;100.00
54389;BME280;40975;50.390;8.640;2023-03-03T09:18:31;99758.94;;;1.38;100.00
54389;BME280;40975;50.390;8.640;2023-03-03T09:20:59;99767.09;;;1.50;100.00
54389;BME280;40975;50.390;8.640;2023-03-03T09:23:34;99769.56;;;1.72;100.00
54389;BME280;40975;50.390;8.640;2023-03-03T09:26:23;99770.84;;;1.63;100.00
54389;BME280;40975;50.390;8.640;2023-03-03T09:31:42;99761.69;;;1.54;100.00
54389;BME280;40975;50.390;8.640;2023-03-03T09:34:24;99770.34;;;1.74;100.00
54389;BME280;40975;50.390;8.640;2023-03-03T09:36:51;99773.00;;;1.73;100.00
54389;BME280;40975;50.390;8.640;2023-03-03T09:39:20;99771.50;;;1.86;100.00
54389;BME280;40975;50.390;8.640;2023-03-03T09:42:08;99766.59;;;1.97;100.00
54389;BME280;40975;50.390;8.640;2023-03-03T09:50:12;99779.75;;;1.96;100.00
54389;BME280;40975;50.390;8.640;2023-03-03T09:55:49;99805.78;;;1.62;100.00
54389;BME280;40975;50.390;8.640;2023-03-03T09:58:35;99799.63;;;1.63;100.00
54389;BME280;40975;50.390;8.640;2023-03-03T10:01:38;99809.34;;;1.42;100.00
54389;BME280;40975;50.390;8.640;2023-03-03T10:07:34;99811.88;;;1.99;100.00
54389;BME280;40975;50.390;8.640;2023-03-03T10:10:31;99814.50;;;2.35;100.00
54389;BME280;40975;50.390;8.640;2023-03-03T10:13:19;99822.28;;;2.36;100.00
54389;BME280;40975;50.390;8.640;2023-03-03T10:18:36;99820.59;;;2.35;100.00
54389;BME280;40975;50.390;8.640;2023-03-03T10:21:23;99805.56;;;2.21;100.00
54389;BME280;40975;50.390;8.640;2023-03-03T10:32:21;99826.50;;;2.21;100.00
54389;BME280;40975;50.390;8.640;2023-03-03T10:34:58;99824.75;;;2.04;100.00
54389;BME280;40975;50.390;8.640;2023-03-03T10:40:28;99831.84;;;2.55;100.00
54389;BME280;40975;50.390;8.640;2023-03-03T10:48:29;99827.56;;;2.87;100.00
54389;BME280;40975;50.390;8.640;2023-03-03T10:53:58;99830.19;;;2.87;100.00
54389;BME280;40975;50.390;8.640;2023-03-03T11:02:02;99816.47;;;5.85;83.41
54389;BME280;40975;50.390;8.640;2023-03-03T11:07:37;99807.34;;;5.35;85.35
54389;BME280;40975;50.390;8.640;2023-03-03T11:21:06;99781.66;;;8.34;70.05
54389;BME280;40975;50.390;8.640;2023-03-03T11:24:03;99779.72;;;8.94;71.39
54389;BME280;40975;50.390;8.640;2023-03-03T11:32:45;99789.81;;;7.71;72.85
54389;BME280;40975;50.390;8.640;2023-03-03T11:35:21;99785.19;;;7.86;74.14
54389;BME280;40975;50.390;8.640;2023-03-03T11:38:05;99781.78;;;8.44;70.88
54389;BME280;40975;50.390;8.640;2023-03-03T11:40:56;99782.59;;;8.68;71.07
54389;BME280;40975;50.390;8.640;2023-03-03T11:43:50;99783.72;;;9.00;69.98
54389;BME280;40975;50.390;8.640;2023-03-03T11:49:39;99777.09;;;8.83;72.35
54389;BME280;40975;50.390;8.640;2023-03-03T11:55:18;99777.56;;;8.30;71.00
54389;BME280;40975;50.390;8.640;2023-03-03T11:57:50;99743.75;;;8.58;68.51
54389;BME280;40975;50.390;8.640;2023-03-03T12:00:23;99763.69;;;8.50;68.26
54389;BME280;40975;50.390;8.640;2023-03-03T12:03:00;99753.63;;;8.67;68.13
54389;BME280;40975;50.390;8.640;2023-03-03T12:05:54;99755.03;;;8.60;69.14
54389;BME280;40975;50.390;8.640;2023-03-03T12:08:29;99748.25;;;7.49;69.55
54389;BME280;40975;50.390;8.640;2023-03-03T12:11:20;99746.50;;;8.20;71.51
54389;BME280;40975;50.390;8.640;2023-03-03T12:16:44;99730.41;;;8.59;68.87
54389;BME280;40975;50.390;8.640;2023-03-03T12:22:00;99725.41;;;8.43;68.24
54389;BME280;40975;50.390;8.640;2023-03-03T12:24:41;99726.16;;;8.45;69.13
54389;BME280;40975;50.390;8.640;2023-03-03T12:27:22;99732.41;;;8.44;70.97
54389;BME280;40975;50.390;8.640;2023-03-03T12:30:13;99728.59;;;8.60;69.16
54389;BME280;40975;50.390;8.640;2023-03-03T12:33:06;99715.13;;;8.51;66.84
54389;BME280;40975;50.390;8.640;2023-03-03T12:35:42;99715.13;;;8.63;68.31
54389;BME280;40975;50.390;8.640;2023-03-03T12:41:24;99723.91;;;8.86;69.56
54389;BME280;40975;50.390;8.640;2023-03-03T12:43:59;99714.28;;;8.85;68.53
54389;BME280;40975;50.390;8.640;2023-03-03T12:46:39;99711.75;;;8.95;66.14
54389;BME280;40975;50.390;8.640;2023-03-03T12:49:06;99709.47;;;8.79;68.18
54389;BME280;40975;50.390;8.640;2023-03-03T12:57:00;99704.19;;;8.79;69.40
54389;BME280;40975;50.390;8.640;2023-03-03T12:59:59;99695.03;;;8.49;69.03
54389;BME280;40975;50.390;8.640;2023-03-03T13:02:44;99692.38;;;8.49;69.53
54389;BME280;40975;50.390;8.640;2023-03-03T13:10:40;99683.97;;;8.78;69.76
54389;BME280;40975;50.390;8.640;2023-03-03T13:13:33;99691.69;;;8.92;68.70
54389;BME280;40975;50.390;8.640;2023-03-03T13:16:09;99688.28;;;9.01;68.76
54389;BME280;40975;50.390;8.640;2023-03-03T13:18:50;99683.69;;;9.03;65.86
54389;BME280;40975;50.390;8.640;2023-03-03T13:21:34;99682.50;;;8.96;67.30
54389;BME280;40975;50.390;8.640;2023-03-03T13:26:39;99671.22;;;8.60;66.87
54389;BME280;40975;50.390;8.640;2023-03-03T13:29:19;99678.69;;;8.66;67.69
54389;BME280;40975;50.390;8.640;2023-03-03T13:31:54;99685.53;;;8.69;69.51
54389;BME280;40975;50.390;8.640;2023-03-03T13:34:31;99665.72;;;8.52;68.15
54389;BME280;40975;50.390;8.640;2023-03-03T13:37:19;99675.03;;;8.45;66.42
54389;BME280;40975;50.390;8.640;2023-03-03T13:39:54;99678.06;;;8.51;68.44
54389;BME280;40975;50.390;8.640;2023-03-03T13:44:48;99666.31;;;8.55;68.13
54389;BME280;40975;50.390;8.640;2023-03-03T13:49:58;99661.84;;;8.67;67.99
54389;BME280;40975;50.390;8.640;2023-03-03T13:52:49;99663.75;;;8.31;66.88
54389;BME280;40975;50.390;8.640;2023-03-03T13:55:24;99636.06;;;8.35;65.73
54389;BME280;40975;50.390;8.640;2023-03-03T14:01:00;99651.47;;;8.30;65.52
54389;BME280;40975;50.390;8.640;2023-03-03T14:06:17;99652.91;;;8.46;66.99
54389;BME280;40975;50.390;8.640;2023-03-03T14:11:29;99648.56;;;8.45;66.40
54389;BME280;40975;50.390;8.640;2023-03-03T14:14:16;99645.50;;;8.51;68.20
54389;BME280;40975;50.390;8.640;2023-03-03T14:16:53;99643.91;;;8.37;66.62
54389;BME280;40975;50.390;8.640;2023-03-03T14:19:27;99633.19;;;8.27;65.91
54389;BME280;40975;50.390;8.640;2023-03-03T14:22:05;99641.28;;;8.60;69.32
54389;BME280;40975;50.390;8.640;2023-03-03T14:25:08;99644.00;;;8.24;67.10
54389;BME280;40975;50.390;8.640;2023-03-03T14:30:25;99639.91;;;8.20;66.97
54389;BME280;40975;50.390;8.640;2023-03-03T14:33:00;99631.31;;;7.82;66.31
54389;BME280;40975;50.390;8.640;2023-03-03T14:35:30;99639.75;;;7.87;68.21
54389;BME280;40975;50.390;8.640;2023-03-03T14:38:23;99638.75;;;7.41;67.89
54389;BME280;40975;50.390;8.640;2023-03-03T14:41:16;99639.84;;;7.50;68.16
54389;BME280;40975;50.390;8.640;2023-03-03T14:43:45;99637.28;;;7.37;69.98
54389;BME280;40975;50.390;8.640;2023-03-03T14:46:38;99643.31;;;7.39;69.49
54389;BME280;40975;50.390;8.640;2023-03-03T14:49:12;99645.59;;;7.44;69.66
54389;BME280;40975;50.390;8.640;2023-03-03T14:51:48;99636.00;;;7.43;69.97
54389;BME280;40975;50.390;8.640;2023-03-03T14:54:29;99625.16;;;7.35;68.81
54389;BME280;40975;50.390;8.640;2023-03-03T14:57:22;99636.34;;;7.14;70.19
54389;BME280;40975;50.390;8.640;2023-03-03T15:02:42;99619.00;;;7.23;72.12
54389;BME280;40975;50.390;8.640;2023-03-03T15:05:27;99629.03;;;7.18;71.52
54389;BME280;40975;50.390;8.640;2023-03-03T15:10:40;99618.69;;;7.14;73.41
54389;BME280;40975;50.390;8.640;2023-03-03T15:13:32;99622.69;;;7.20;73.05
54389;BME280;40975;50.390;8.640;2023-03-03T15:18:25;99629.50;;;7.11;74.57
54389;BME280;40975;50.390;8.640;2023-03-03T15:21:02;99622.00;;;7.05;74.59
54389;BME280;40975;50.390;8.640;2023-03-03T15:23:42;99630.16;;;7.02;76.36
54389;BME280;40975;50.390;8.640;2023-03-03T15:26:43;99628.63;;;7.11;75.84
54389;BME280;40975;50.390;8.640;2023-03-03T15:29:16;99613.44;;;6.77;75.40
54389;BME280;40975;50.390;8.640;2023-03-03T15:32:02;99631.91;;;6.77;76.84
54389;BME280;40975;50.390;8.640;2023-03-03T15:34:47;99626.88;;;6.61;76.56
54389;BME280;40975;50.390;8.640;2023-03-03T15:37:46;99615.75;;;6.45;76.95
54389;BME280;40975;50.390;8.640;2023-03-03T15:40:29;99636.31;;;6.40;78.13
54389;BME280;40975;50.390;8.640;2023-03-03T15:43:05;99627.88;;;6.34;79.59
54389;BME280;40975;50.390;8.640;2023-03-03T15:51:30;99624.59;;;5.79;80.07